sensor_id;sensor_type;location;lat;lon;timestamp;temperature;humidity
210;DHT22;90;48.810;9.120;2022-10-16T00:02:04;16.70;90.30
210;DHT22;90;48.810;9.120;2022-10-16T00:04:31;16.70;90.20
210;DHT22;90;48.810;9.120;2022-10-16T00:06:59;16.70;90.30
210;DHT22;90;48.810;9.120;2022-10-16T00:09:27;16.80;90.10
210;DHT22;90;48.810;9.120;2022-10-16T00:11:54;16.80;89.80
210;DHT22;90;48.810;9.120;2022-10-16T00:14:21;16.80;89.90
210;DHT22;90;48.810;9.120;2022-10-16T00:16:48;16.80;89.90
210;DHT22;90;48.810;9.120;2022-10-16T00:19:16;16.70;90.00
210;DHT22;90;48.810;9.120;2022-10-16T00:21:43;16.70;89.90
210;DHT22;90;48.810;9.120;2022-10-16T00:24:10;16.70;89.80
210;DHT22;90;48.810;9.120;2022-10-16T00:26:39;16.70;89.70
210;DHT22;90;48.810;9.120;2022-10-16T00:29:07;16.70;89.70
210;DHT22;90;48.810;9.120;2022-10-16T00:31:35;16.70;89.80
210;DHT22;90;48.810;9.120;2022-10-16T00:34:03;16.70;89.60
210;DHT22;90;48.810;9.120;2022-10-16T00:36:31;16.70;89.70
210;DHT22;90;48.810;9.120;2022-10-16T00:38:58;16.80;89.40
210;DHT22;90;48.810;9.120;2022-10-16T00:41:30;16.80;89.20
210;DHT22;90;48.810;9.120;2022-10-16T00:44:00;16.80;89.00
210;DHT22;90;48.810;9.120;2022-10-16T00:46:31;16.80;88.90
210;DHT22;90;48.810;9.120;2022-10-16T00:49:03;16.80;88.80
210;DHT22;90;48.810;9.120;2022-10-16T00:51:33;16.80;88.70
210;DHT22;90;48.810;9.120;2022-10-16T00:54:02;16.80;88.70
210;DHT22;90;48.810;9.120;2022-10-16T00:56:32;16.80;88.70
210;DHT22;90;48.810;9.120;2022-10-16T00:59:02;16.80;89.00
210;DHT22;90;48.810;9.120;2022-10-16T01:01:30;16.70;89.10
210;DHT22;90;48.810;9.120;2022-10-16T01:03:57;16.70;89.00
210;DHT22;90;48.810;9.120;2022-10-16T01:06:28;16.80;89.00
210;DHT22;90;48.810;9.120;2022-10-16T01:09:11;16.80;89.00
210;DHT22;90;48.810;9.120;2022-10-16T01:11:45;16.80;88.80
210;DHT22;90;48.810;9.120;2022-10-16T01:14:22;16.80;88.80
210;DHT22;90;48.810;9.120;2022-10-16T01:16:55;16.80;88.60
210;DHT22;90;48.810;9.120;2022-10-16T01:19:36;16.90;88.30
210;DHT22;90;48.810;9.120;2022-10-16T01:22:08;16.90;88.10
210;DHT22;90;48.810;9.120;2022-10-16T01:24:39;16.90;87.80
210;DHT22;90;48.810;9.120;2022-10-16T01:27:13;16.90;88.00
210;DHT22;90;48.810;9.120;2022-10-16T01:29:48;16.90;88.00
210;DHT22;90;48.810;9.120;2022-10-16T01:32:22;16.90;87.90
210;DHT22;90;48.810;9.120;2022-10-16T01:34:52;17.00;87.60
210;DHT22;90;48.810;9.120;2022-10-16T01:37:32;17.00;87.50
210;DHT22;90;48.810;9.120;2022-10-16T01:40:01;17.00;87.40
210;DHT22;90;48.810;9.120;2022-10-16T01:42:34;17.00;87.60
210;DHT22;90;48.810;9.120;2022-10-16T01:45:05;17.00;87.80
210;DHT22;90;48.810;9.120;2022-10-16T01:47:35;16.90;87.60
210;DHT22;90;48.810;9.120;2022-10-16T01:50:05;16.90;87.70
210;DHT22;90;48.810;9.120;2022-10-16T01:52:35;16.90;87.80
210;DHT22;90;48.810;9.120;2022-10-16T01:55:05;16.90;88.10
210;DHT22;90;48.810;9.120;2022-10-16T01:57:36;16.90;88.70
210;DHT22;90;48.810;9.120;2022-10-16T02:00:09;16.90;88.80
210;DHT22;90;48.810;9.120;2022-10-16T02:02:39;16.90;88.50
210;DHT22;90;48.810;9.120;2022-10-16T02:05:12;16.90;88.90
210;DHT22;90;48.810;9.120;2022-10-16T02:07:41;16.80;89.30
210;DHT22;90;48.810;9.120;2022-10-16T02:10:09;16.80;89.40
210;DHT22;90;48.810;9.120;2022-10-16T02:12:40;16.80;89.50
210;DHT22;90;48.810;9.120;2022-10-16T02:15:10;16.80;89.50
210;DHT22;90;48.810;9.120;2022-10-16T02:17:37;16.80;89.60
210;DHT22;90;48.810;9.120;2022-10-16T02:20:05;16.80;89.70
210;DHT22;90;48.810;9.120;2022-10-16T02:22:35;16.80;89.60
210;DHT22;90;48.810;9.120;2022-10-16T02:25:06;16.70;89.90
210;DHT22;90;48.810;9.120;2022-10-16T02:27:43;16.70;90.10
210;DHT22;90;48.810;9.120;2022-10-16T02:30:14;16.70;90.10
210;DHT22;90;48.810;9.120;2022-10-16T02:32:47;16.70;89.80
210;DHT22;90;48.810;9.120;2022-10-16T02:35:17;16.70;89.70
210;DHT22;90;48.810;9.120;2022-10-16T02:37:46;16.70;89.70
210;DHT22;90;48.810;9.120;2022-10-16T02:40:14;16.70;89.50
210;DHT22;90;48.810;9.120;2022-10-16T02:42:50;16.70;89.90
210;DHT22;90;48.810;9.120;2022-10-16T02:45:18;16.70;90.00
210;DHT22;90;48.810;9.120;2022-10-16T02:47:45;16.60;89.90
210;DHT22;90;48.810;9.120;2022-10-16T02:50:13;16.60;90.00
210;DHT22;90;48.810;9.120;2022-10-16T02:52:40;16.70;89.80
210;DHT22;90;48.810;9.120;2022-10-16T02:55:08;16.70;89.80
210;DHT22;90;48.810;9.120;2022-10-16T02:57:35;16.70;90.00
210;DHT22;90;48.810;9.120;2022-10-16T03:00:07;16.60;89.90
210;DHT22;90;48.810;9.120;2022-10-16T03:02:35;16.60;89.90
210;DHT22;90;48.810;9.120;2022-10-16T03:05:02;16.70;90.10
210;DHT22;90;48.810;9.120;2022-10-16T03:07:29;16.60;90.20
210;DHT22;90;48.810;9.120;2022-10-16T03:09:56;16.60;90.30
210;DHT22;90;48.810;9.120;2022-10-16T03:12:25;16.60;90.40
210;DHT22;90;48.810;9.120;2022-10-16T03:14:53;16.60;90.70
210;DHT22;90;48.810;9.120;2022-10-16T03:17:21;16.50;90.70
210;DHT22;90;48.810;9.120;2022-10-16T03:19:48;16.50;90.80
210;DHT22;90;48.810;9.120;2022-10-16T03:22:15;16.50;90.70
210;DHT22;90;48.810;9.120;2022-10-16T03:24:42;16.50;90.60
210;DHT22;90;48.810;9.120;2022-10-16T03:27:09;16.60;90.50
210;DHT22;90;48.810;9.120;2022-10-16T03:29:36;16.50;90.60
210;DHT22;90;48.810;9.120;2022-10-16T03:32:03;16.50;90.60
210;DHT22;90;48.810;9.120;2022-10-16T03:34:32;16.50;90.60
210;DHT22;90;48.810;9.120;2022-10-16T03:36:59;16.50;90.80
210;DHT22;90;48.810;9.120;2022-10-16T03:39:26;16.50;90.90
210;DHT22;90;48.810;9.120;2022-10-16T03:41:53;16.50;90.80
210;DHT22;90;48.810;9.120;2022-10-16T03:44:20;16.50;91.00
210;DHT22;90;48.810;9.120;2022-10-16T03:46:48;16.50;90.90
210;DHT22;90;48.810;9.120;2022-10-16T03:49:15;16.50;90.90
210;DHT22;90;48.810;9.120;2022-10-16T03:51:43;16.40;91.20
210;DHT22;90;48.810;9.120;2022-10-16T03:54:10;16.40;91.20
210;DHT22;90;48.810;9.120;2022-10-16T03:56:38;16.40;91.20
210;DHT22;90;48.810;9.120;2022-10-16T03:59:05;16.40;91.40
210;DHT22;90;48.810;9.120;2022-10-16T04:01:32;16.40;91.50
210;DHT22;90;48.810;9.120;2022-10-16T04:03:59;16.40;91.40
210;DHT22;90;48.810;9.120;2022-10-16T04:06:26;16.40;91.40
210;DHT22;90;48.810;9.120;2022-10-16T04:08:54;16.50;91.20
210;DHT22;90;48.810;9.120;2022-10-16T04:11:21;16.40;91.30
210;DHT22;90;48.810;9.120;2022-10-16T04:13:48;16.40;91.50
210;DHT22;90;48.810;9.120;2022-10-16T04:16:15;16.40;91.40
210;DHT22;90;48.810;9.120;2022-10-16T04:18:42;16.40;91.30
210;DHT22;90;48.810;9.120;2022-10-16T04:21:09;16.50;91.10
210;DHT22;90;48.810;9.120;2022-10-16T04:23:36;16.50;90.90
210;DHT22;90;48.810;9.120;2022-10-16T04:26:05;16.50;90.80
210;DHT22;90;48.810;9.120;2022-10-16T04:28:32;16.40;91.00
210;DHT22;90;48.810;9.120;2022-10-16T04:30:59;16.40;91.00
210;DHT22;90;48.810;9.120;2022-10-16T04:33:26;16.40;91.00
210;DHT22;90;48.810;9.120;2022-10-16T04:35:56;16.40;90.80
210;DHT22;90;48.810;9.120;2022-10-16T04:38:24;16.40;90.70
210;DHT22;90;48.810;9.120;2022-10-16T04:40:51;16.40;90.40
210;DHT22;90;48.810;9.120;2022-10-16T04:43:20;16.50;90.40
210;DHT22;90;48.810;9.120;2022-10-16T04:45:47;16.40;90.30
210;DHT22;90;48.810;9.120;2022-10-16T04:48:16;16.40;90.40
210;DHT22;90;48.810;9.120;2022-10-16T04:50:43;16.50;90.40
210;DHT22;90;48.810;9.120;2022-10-16T04:53:10;16.50;90.50
210;DHT22;90;48.810;9.120;2022-10-16T04:55:37;16.50;90.40
210;DHT22;90;48.810;9.120;2022-10-16T04:58:04;16.50;90.40
210;DHT22;90;48.810;9.120;2022-10-16T05:00:33;16.60;90.80
210;DHT22;90;48.810;9.120;2022-10-16T05:03:00;16.50;90.40
210;DHT22;90;48.810;9.120;2022-10-16T05:05:27;16.50;90.70
210;DHT22;90;48.810;9.120;2022-10-16T05:07:55;16.50;90.60
210;DHT22;90;48.810;9.120;2022-10-16T05:10:22;16.50;90.60
210;DHT22;90;48.810;9.120;2022-10-16T05:12:49;16.50;90.70
210;DHT22;90;48.810;9.120;2022-10-16T05:15:17;16.50;90.50
210;DHT22;90;48.810;9.120;2022-10-16T05:17:45;16.50;90.60
210;DHT22;90;48.810;9.120;2022-10-16T05:20:12;16.50;90.60
210;DHT22;90;48.810;9.120;2022-10-16T05:22:39;16.50;90.60
210;DHT22;90;48.810;9.120;2022-10-16T05:25:07;16.50;90.80
210;DHT22;90;48.810;9.120;2022-10-16T05:27:34;16.40;90.90
210;DHT22;90;48.810;9.120;2022-10-16T05:30:01;16.50;90.50
210;DHT22;90;48.810;9.120;2022-10-16T05:32:28;16.50;90.60
210;DHT22;90;48.810;9.120;2022-10-16T05:34:56;16.50;90.70
210;DHT22;90;48.810;9.120;2022-10-16T05:37:25;16.40;90.60
210;DHT22;90;48.810;9.120;2022-10-16T05:39:52;16.40;90.70
210;DHT22;90;48.810;9.120;2022-10-16T05:42:19;16.40;90.80
210;DHT22;90;48.810;9.120;2022-10-16T05:44:46;16.50;91.90
210;DHT22;90;48.810;9.120;2022-10-16T05:47:14;16.70;91.00
210;DHT22;90;48.810;9.120;2022-10-16T05:49:41;16.70;90.00
210;DHT22;90;48.810;9.120;2022-10-16T05:52:09;16.70;89.90
210;DHT22;90;48.810;9.120;2022-10-16T05:54:36;16.70;89.40
210;DHT22;90;48.810;9.120;2022-10-16T05:57:03;16.70;89.20
210;DHT22;90;48.810;9.120;2022-10-16T05:59:31;16.60;88.90
210;DHT22;90;48.810;9.120;2022-10-16T06:01:58;16.60;89.10
210;DHT22;90;48.810;9.120;2022-10-16T06:04:25;16.60;89.40
210;DHT22;90;48.810;9.120;2022-10-16T06:06:52;16.50;89.20
210;DHT22;90;48.810;9.120;2022-10-16T06:09:21;16.60;89.10
210;DHT22;90;48.810;9.120;2022-10-16T06:11:48;16.50;88.70
210;DHT22;90;48.810;9.120;2022-10-16T06:14:18;16.60;88.60
210;DHT22;90;48.810;9.120;2022-10-16T06:16:45;16.60;88.90
210;DHT22;90;48.810;9.120;2022-10-16T06:19:12;16.60;88.80
210;DHT22;90;48.810;9.120;2022-10-16T06:21:39;16.60;88.80
210;DHT22;90;48.810;9.120;2022-10-16T06:24:07;16.60;89.20
210;DHT22;90;48.810;9.120;2022-10-16T06:26:36;16.60;88.80
210;DHT22;90;48.810;9.120;2022-10-16T06:29:04;16.70;88.80
210;DHT22;90;48.810;9.120;2022-10-16T06:31:31;16.70;88.80
210;DHT22;90;48.810;9.120;2022-10-16T06:33:59;16.70;88.60
210;DHT22;90;48.810;9.120;2022-10-16T06:36:27;16.80;88.50
210;DHT22;90;48.810;9.120;2022-10-16T06:38:54;16.70;87.80
210;DHT22;90;48.810;9.120;2022-10-16T06:41:22;16.70;88.30
210;DHT22;90;48.810;9.120;2022-10-16T06:43:51;16.70;88.70
210;DHT22;90;48.810;9.120;2022-10-16T06:46:20;16.70;88.60
210;DHT22;90;48.810;9.120;2022-10-16T06:48:48;16.80;88.60
210;DHT22;90;48.810;9.120;2022-10-16T06:51:16;16.80;88.60
210;DHT22;90;48.810;9.120;2022-10-16T06:53:45;16.80;88.20
210;DHT22;90;48.810;9.120;2022-10-16T06:56:14;16.80;88.00
210;DHT22;90;48.810;9.120;2022-10-16T06:58:42;16.80;88.30
210;DHT22;90;48.810;9.120;2022-10-16T07:01:12;16.80;88.50
210;DHT22;90;48.810;9.120;2022-10-16T07:03:41;16.80;88.30
210;DHT22;90;48.810;9.120;2022-10-16T07:06:10;16.90;88.00
210;DHT22;90;48.810;9.120;2022-10-16T07:08:39;16.90;87.90
210;DHT22;90;48.810;9.120;2022-10-16T07:11:08;17.00;87.60
210;DHT22;90;48.810;9.120;2022-10-16T07:13:36;17.00;87.10
210;DHT22;90;48.810;9.120;2022-10-16T07:16:07;17.00;86.50
210;DHT22;90;48.810;9.120;2022-10-16T07:18:36;17.00;86.80
210;DHT22;90;48.810;9.120;2022-10-16T07:21:05;17.10;86.80
210;DHT22;90;48.810;9.120;2022-10-16T07:23:32;17.20;87.20
210;DHT22;90;48.810;9.120;2022-10-16T07:25:59;17.20;87.40
210;DHT22;90;48.810;9.120;2022-10-16T07:28:27;17.20;87.60
210;DHT22;90;48.810;9.120;2022-10-16T07:30:54;17.20;86.20
210;DHT22;90;48.810;9.120;2022-10-16T07:33:22;17.20;87.00
210;DHT22;90;48.810;9.120;2022-10-16T07:35:52;17.20;87.90
210;DHT22;90;48.810;9.120;2022-10-16T07:38:20;17.20;88.40
210;DHT22;90;48.810;9.120;2022-10-16T07:40:55;17.10;88.40
210;DHT22;90;48.810;9.120;2022-10-16T07:43:22;17.10;88.40
210;DHT22;90;48.810;9.120;2022-10-16T07:45:50;17.10;87.80
210;DHT22;90;48.810;9.120;2022-10-16T07:48:17;17.20;88.20
210;DHT22;90;48.810;9.120;2022-10-16T07:50:45;18.30;86.40
210;DHT22;90;48.810;9.120;2022-10-16T07:53:13;18.30;86.20
210;DHT22;90;48.810;9.120;2022-10-16T07:55:41;18.90;83.30
210;DHT22;90;48.810;9.120;2022-10-16T07:58:08;19.20;81.00
210;DHT22;90;48.810;9.120;2022-10-16T08:00:36;19.50;80.30
210;DHT22;90;48.810;9.120;2022-10-16T08:03:03;19.70;79.30
210;DHT22;90;48.810;9.120;2022-10-16T08:05:32;19.90;78.10
210;DHT22;90;48.810;9.120;2022-10-16T08:08:00;20.10;77.60
210;DHT22;90;48.810;9.120;2022-10-16T08:10:29;20.70;75.20
210;DHT22;90;48.810;9.120;2022-10-16T08:12:57;20.70;74.60
210;DHT22;90;48.810;9.120;2022-10-16T08:15:24;20.70;74.80
210;DHT22;90;48.810;9.120;2022-10-16T08:17:55;20.60;75.00
210;DHT22;90;48.810;9.120;2022-10-16T08:20:22;20.60;74.90
210;DHT22;90;48.810;9.120;2022-10-16T08:22:49;20.70;74.40
210;DHT22;90;48.810;9.120;2022-10-16T08:25:17;20.70;74.10
210;DHT22;90;48.810;9.120;2022-10-16T08:27:45;20.70;74.20
210;DHT22;90;48.810;9.120;2022-10-16T08:30:12;20.80;74.10
210;DHT22;90;48.810;9.120;2022-10-16T08:32:40;20.80;73.70
210;DHT22;90;48.810;9.120;2022-10-16T08:35:08;20.80;73.60
210;DHT22;90;48.810;9.120;2022-10-16T08:37:36;20.80;73.30
210;DHT22;90;48.810;9.120;2022-10-16T08:40:05;20.70;72.70
210;DHT22;90;48.810;9.120;2022-10-16T08:42:47;20.70;73.30
210;DHT22;90;48.810;9.120;2022-10-16T08:45:41;20.80;73.20
210;DHT22;90;48.810;9.120;2022-10-16T08:48:17;20.80;73.40
210;DHT22;90;48.810;9.120;2022-10-16T08:50:48;20.80;73.40
210;DHT22;90;48.810;9.120;2022-10-16T08:53:20;20.80;73.40
210;DHT22;90;48.810;9.120;2022-10-16T08:55:51;20.50;73.70
210;DHT22;90;48.810;9.120;2022-10-16T08:58:21;20.20;74.70
210;DHT22;90;48.810;9.120;2022-10-16T09:00:54;19.90;76.00
210;DHT22;90;48.810;9.120;2022-10-16T09:03:29;19.70;76.50
210;DHT22;90;48.810;9.120;2022-10-16T09:06:17;19.40;77.10
210;DHT22;90;48.810;9.120;2022-10-16T09:08:53;19.30;77.90
210;DHT22;90;48.810;9.120;2022-10-16T09:11:32;19.20;78.00
210;DHT22;90;48.810;9.120;2022-10-16T09:14:10;19.10;77.80
210;DHT22;90;48.810;9.120;2022-10-16T09:16:48;19.00;78.00
210;DHT22;90;48.810;9.120;2022-10-16T09:19:24;18.90;78.20
210;DHT22;90;48.810;9.120;2022-10-16T09:21:53;18.90;78.00
210;DHT22;90;48.810;9.120;2022-10-16T09:24:23;18.90;78.30
210;DHT22;90;48.810;9.120;2022-10-16T09:26:52;18.90;78.20
210;DHT22;90;48.810;9.120;2022-10-16T09:29:21;18.90;78.50
210;DHT22;90;48.810;9.120;2022-10-16T09:31:51;18.90;78.70
210;DHT22;90;48.810;9.120;2022-10-16T09:34:26;19.00;78.00
210;DHT22;90;48.810;9.120;2022-10-16T09:36:56;19.00;78.20
210;DHT22;90;48.810;9.120;2022-10-16T09:39:24;19.00;78.00
210;DHT22;90;48.810;9.120;2022-10-16T09:41:52;19.10;78.00
210;DHT22;90;48.810;9.120;2022-10-16T09:44:24;19.10;78.30
210;DHT22;90;48.810;9.120;2022-10-16T09:47:01;19.10;77.60
210;DHT22;90;48.810;9.120;2022-10-16T09:49:28;19.10;78.40
210;DHT22;90;48.810;9.120;2022-10-16T09:52:04;19.10;77.90
210;DHT22;90;48.810;9.120;2022-10-16T09:54:31;19.10;77.90
210;DHT22;90;48.810;9.120;2022-10-16T09:57:05;19.30;77.90
210;DHT22;90;48.810;9.120;2022-10-16T09:59:34;19.30;77.40
210;DHT22;90;48.810;9.120;2022-10-16T10:02:04;19.40;77.20
210;DHT22;90;48.810;9.120;2022-10-16T10:04:40;19.40;77.50
210;DHT22;90;48.810;9.120;2022-10-16T10:07:18;19.50;76.30
210;DHT22;90;48.810;9.120;2022-10-16T10:09:47;19.60;75.90
210;DHT22;90;48.810;9.120;2022-10-16T10:12:19;19.70;75.50
210;DHT22;90;48.810;9.120;2022-10-16T10:14:50;19.80;75.50
210;DHT22;90;48.810;9.120;2022-10-16T10:17:19;19.90;75.10
210;DHT22;90;48.810;9.120;2022-10-16T10:19:51;19.90;74.60
210;DHT22;90;48.810;9.120;2022-10-16T10:22:25;19.90;74.90
210;DHT22;90;48.810;9.120;2022-10-16T10:24:57;19.90;75.00
210;DHT22;90;48.810;9.120;2022-10-16T10:27:32;20.00;74.50
210;DHT22;90;48.810;9.120;2022-10-16T10:30:10;20.20;75.30
210;DHT22;90;48.810;9.120;2022-10-16T10:32:47;20.30;74.90
210;DHT22;90;48.810;9.120;2022-10-16T10:35:22;20.50;74.80
210;DHT22;90;48.810;9.120;2022-10-16T10:38:04;20.50;74.80
210;DHT22;90;48.810;9.120;2022-10-16T10:40:43;20.50;74.80
210;DHT22;90;48.810;9.120;2022-10-16T10:43:22;20.60;76.30
210;DHT22;90;48.810;9.120;2022-10-16T10:45:55;20.60;76.00
210;DHT22;90;48.810;9.120;2022-10-16T10:48:49;20.60;76.30
210;DHT22;90;48.810;9.120;2022-10-16T10:51:21;20.60;76.70
210;DHT22;90;48.810;9.120;2022-10-16T10:53:56;20.70;75.10
210;DHT22;90;48.810;9.120;2022-10-16T10:56:42;20.70;73.00
210;DHT22;90;48.810;9.120;2022-10-16T10:59:37;20.70;75.70
210;DHT22;90;48.810;9.120;2022-10-16T11:02:18;20.80;77.20
210;DHT22;90;48.810;9.120;2022-10-16T11:05:31;20.80;77.90
210;DHT22;90;48.810;9.120;2022-10-16T11:08:06;20.70;76.80
210;DHT22;90;48.810;9.120;2022-10-16T11:10:43;20.70;77.30
210;DHT22;90;48.810;9.120;2022-10-16T11:13:24;20.70;77.10
210;DHT22;90;48.810;9.120;2022-10-16T11:15:56;20.60;76.10
210;DHT22;90;48.810;9.120;2022-10-16T11:18:32;20.70;75.60
210;DHT22;90;48.810;9.120;2022-10-16T11:21:04;21.00;76.20
210;DHT22;90;48.810;9.120;2022-10-16T11:23:37;21.20;76.60
210;DHT22;90;48.810;9.120;2022-10-16T11:26:11;21.40;76.00
210;DHT22;90;48.810;9.120;2022-10-16T11:28:45;21.40;74.20
210;DHT22;90;48.810;9.120;2022-10-16T11:31:17;21.40;73.10
210;DHT22;90;48.810;9.120;2022-10-16T11:33:52;21.50;72.60
210;DHT22;90;48.810;9.120;2022-10-16T11:36:25;21.60;71.50
210;DHT22;90;48.810;9.120;2022-10-16T11:38:58;21.70;71.60
210;DHT22;90;48.810;9.120;2022-10-16T11:41:29;21.80;73.00
210;DHT22;90;48.810;9.120;2022-10-16T11:44:12;22.00;72.20
210;DHT22;90;48.810;9.120;2022-10-16T11:46:45;22.20;70.70
210;DHT22;90;48.810;9.120;2022-10-16T11:49:20;22.20;67.40
210;DHT22;90;48.810;9.120;2022-10-16T11:51:55;22.20;66.80
210;DHT22;90;48.810;9.120;2022-10-16T11:54:30;22.20;66.90
210;DHT22;90;48.810;9.120;2022-10-16T11:57:03;22.30;66.60
210;DHT22;90;48.810;9.120;2022-10-16T11:59:41;22.50;66.60
210;DHT22;90;48.810;9.120;2022-10-16T12:02:39;22.60;66.00
210;DHT22;90;48.810;9.120;2022-10-16T12:05:22;22.60;65.60
210;DHT22;90;48.810;9.120;2022-10-16T12:08:01;22.70;66.40
210;DHT22;90;48.810;9.120;2022-10-16T12:10:31;22.70;66.60
210;DHT22;90;48.810;9.120;2022-10-16T12:13:03;22.50;66.80
210;DHT22;90;48.810;9.120;2022-10-16T12:15:31;22.40;66.40
210;DHT22;90;48.810;9.120;2022-10-16T12:17:59;22.30;67.40
210;DHT22;90;48.810;9.120;2022-10-16T12:20:30;22.20;67.90
210;DHT22;90;48.810;9.120;2022-10-16T12:23:03;22.10;67.80
210;DHT22;90;48.810;9.120;2022-10-16T12:25:33;22.00;68.00
210;DHT22;90;48.810;9.120;2022-10-16T12:28:03;22.00;68.40
210;DHT22;90;48.810;9.120;2022-10-16T12:30:33;22.00;68.70
210;DHT22;90;48.810;9.120;2022-10-16T12:33:03;21.90;68.70
210;DHT22;90;48.810;9.120;2022-10-16T12:35:34;22.10;68.10
210;DHT22;90;48.810;9.120;2022-10-16T12:38:07;22.30;67.50
210;DHT22;90;48.810;9.120;2022-10-16T12:40:36;22.60;66.30
210;DHT22;90;48.810;9.120;2022-10-16T12:43:26;22.70;66.80
210;DHT22;90;48.810;9.120;2022-10-16T12:46:02;22.70;67.90
210;DHT22;90;48.810;9.120;2022-10-16T12:48:30;22.70;67.00
210;DHT22;90;48.810;9.120;2022-10-16T12:51:10;22.60;66.20
210;DHT22;90;48.810;9.120;2022-10-16T12:53:37;22.60;65.90
210;DHT22;90;48.810;9.120;2022-10-16T12:56:13;22.70;66.60
210;DHT22;90;48.810;9.120;2022-10-16T12:58:55;22.80;66.50
210;DHT22;90;48.810;9.120;2022-10-16T13:01:34;22.80;65.80
210;DHT22;90;48.810;9.120;2022-10-16T13:04:17;22.60;67.50
210;DHT22;90;48.810;9.120;2022-10-16T13:06:51;22.50;68.20
210;DHT22;90;48.810;9.120;2022-10-16T13:09:30;22.40;69.20
210;DHT22;90;48.810;9.120;2022-10-16T13:12:21;22.40;68.80
210;DHT22;90;48.810;9.120;2022-10-16T13:17:57;22.30;69.10
210;DHT22;90;48.810;9.120;2022-10-16T13:20:31;22.30;69.60
210;DHT22;90;48.810;9.120;2022-10-16T13:23:12;22.30;72.20
210;DHT22;90;48.810;9.120;2022-10-16T13:25:58;22.40;72.60
210;DHT22;90;48.810;9.120;2022-10-16T13:28:30;22.40;72.90
210;DHT22;90;48.810;9.120;2022-10-16T13:31:00;22.40;72.60
210;DHT22;90;48.810;9.120;2022-10-16T13:33:32;22.30;72.40
210;DHT22;90;48.810;9.120;2022-10-16T13:36:00;22.30;71.40
210;DHT22;90;48.810;9.120;2022-10-16T13:38:30;22.20;71.20
210;DHT22;90;48.810;9.120;2022-10-16T13:40:59;22.10;70.10
210;DHT22;90;48.810;9.120;2022-10-16T13:43:29;22.10;69.80
210;DHT22;90;48.810;9.120;2022-10-16T13:46:00;22.10;71.70
210;DHT22;90;48.810;9.120;2022-10-16T13:48:28;22.00;76.60
210;DHT22;90;48.810;9.120;2022-10-16T13:51:06;22.10;77.80
210;DHT22;90;48.810;9.120;2022-10-16T13:53:35;22.10;75.60
210;DHT22;90;48.810;9.120;2022-10-16T13:56:06;22.20;73.50
210;DHT22;90;48.810;9.120;2022-10-16T13:58:33;22.30;72.40
210;DHT22;90;48.810;9.120;2022-10-16T14:01:02;22.40;72.40
210;DHT22;90;48.810;9.120;2022-10-16T14:03:31;22.40;72.50
210;DHT22;90;48.810;9.120;2022-10-16T14:06:01;22.40;72.40
210;DHT22;90;48.810;9.120;2022-10-16T14:08:30;22.30;72.90
210;DHT22;90;48.810;9.120;2022-10-16T14:11:02;22.20;73.30
210;DHT22;90;48.810;9.120;2022-10-16T14:13:31;22.10;73.30
210;DHT22;90;48.810;9.120;2022-10-16T14:16:06;22.10;73.00
210;DHT22;90;48.810;9.120;2022-10-16T14:18:34;22.10;73.50
210;DHT22;90;48.810;9.120;2022-10-16T14:21:06;22.10;75.30
210;DHT22;90;48.810;9.120;2022-10-16T14:23:35;22.20;75.20
210;DHT22;90;48.810;9.120;2022-10-16T14:26:14;22.20;75.20
210;DHT22;90;48.810;9.120;2022-10-16T14:28:43;22.10;75.20
210;DHT22;90;48.810;9.120;2022-10-16T14:31:28;22.00;75.10
210;DHT22;90;48.810;9.120;2022-10-16T14:33:56;21.90;76.00
210;DHT22;90;48.810;9.120;2022-10-16T14:36:24;21.90;76.60
210;DHT22;90;48.810;9.120;2022-10-16T14:39:01;21.80;76.70
210;DHT22;90;48.810;9.120;2022-10-16T14:41:32;21.80;76.70
210;DHT22;90;48.810;9.120;2022-10-16T14:44:11;21.70;76.70
210;DHT22;90;48.810;9.120;2022-10-16T14:46:40;21.80;77.00
210;DHT22;90;48.810;9.120;2022-10-16T14:49:16;21.90;77.30
210;DHT22;90;48.810;9.120;2022-10-16T14:51:44;22.00;77.00
210;DHT22;90;48.810;9.120;2022-10-16T14:54:12;22.00;77.00
210;DHT22;90;48.810;9.120;2022-10-16T14:56:47;22.00;77.00
210;DHT22;90;48.810;9.120;2022-10-16T14:59:18;21.90;77.30
210;DHT22;90;48.810;9.120;2022-10-16T15:01:46;21.90;77.50
210;DHT22;90;48.810;9.120;2022-10-16T15:04:16;21.80;77.80
210;DHT22;90;48.810;9.120;2022-10-16T15:06:44;21.80;77.60
210;DHT22;90;48.810;9.120;2022-10-16T15:09:11;21.90;77.50
210;DHT22;90;48.810;9.120;2022-10-16T15:11:38;22.00;77.50
210;DHT22;90;48.810;9.120;2022-10-16T15:14:09;22.00;78.00
210;DHT22;90;48.810;9.120;2022-10-16T15:16:37;22.10;77.30
210;DHT22;90;48.810;9.120;2022-10-16T15:19:04;22.30;75.90
210;DHT22;90;48.810;9.120;2022-10-16T15:21:32;22.40;75.50
210;DHT22;90;48.810;9.120;2022-10-16T15:24:00;22.40;75.20
210;DHT22;90;48.810;9.120;2022-10-16T15:26:28;22.30;75.20
210;DHT22;90;48.810;9.120;2022-10-16T15:28:55;22.20;75.50
210;DHT22;90;48.810;9.120;2022-10-16T15:31:24;22.10;75.80
210;DHT22;90;48.810;9.120;2022-10-16T15:33:53;22.00;76.10
210;DHT22;90;48.810;9.120;2022-10-16T15:36:27;21.90;76.20
210;DHT22;90;48.810;9.120;2022-10-16T15:38:55;21.80;76.60
210;DHT22;90;48.810;9.120;2022-10-16T15:41:23;21.70;77.20
210;DHT22;90;48.810;9.120;2022-10-16T15:43:50;21.70;77.80
210;DHT22;90;48.810;9.120;2022-10-16T15:46:19;21.60;78.20
210;DHT22;90;48.810;9.120;2022-10-16T15:48:49;21.50;78.60
210;DHT22;90;48.810;9.120;2022-10-16T15:51:17;21.50;79.10
210;DHT22;90;48.810;9.120;2022-10-16T15:53:44;21.40;79.60
210;DHT22;90;48.810;9.120;2022-10-16T15:56:15;21.40;80.30
210;DHT22;90;48.810;9.120;2022-10-16T15:58:44;21.30;80.90
210;DHT22;90;48.810;9.120;2022-10-16T16:01:11;21.30;81.30
210;DHT22;90;48.810;9.120;2022-10-16T16:03:39;21.20;81.70
210;DHT22;90;48.810;9.120;2022-10-16T16:06:09;21.20;82.80
210;DHT22;90;48.810;9.120;2022-10-16T16:08:37;21.10;83.50
210;DHT22;90;48.810;9.120;2022-10-16T16:11:06;21.00;83.90
210;DHT22;90;48.810;9.120;2022-10-16T16:13:34;21.00;84.10
210;DHT22;90;48.810;9.120;2022-10-16T16:16:05;20.90;84.40
210;DHT22;90;48.810;9.120;2022-10-16T16:18:32;20.90;84.60
210;DHT22;90;48.810;9.120;2022-10-16T16:20:59;20.80;85.10
210;DHT22;90;48.810;9.120;2022-10-16T16:23:28;20.70;85.30
210;DHT22;90;48.810;9.120;2022-10-16T16:26:11;20.60;85.80
210;DHT22;90;48.810;9.120;2022-10-16T16:28:39;20.70;85.30
210;DHT22;90;48.810;9.120;2022-10-16T16:31:06;20.90;84.40
210;DHT22;90;48.810;9.120;2022-10-16T16:33:34;21.10;83.70
210;DHT22;90;48.810;9.120;2022-10-16T16:36:02;21.20;83.10
210;DHT22;90;48.810;9.120;2022-10-16T16:38:32;21.30;82.60
210;DHT22;90;48.810;9.120;2022-10-16T16:41:10;21.40;82.20
210;DHT22;90;48.810;9.120;2022-10-16T16:43:37;21.50;81.80
210;DHT22;90;48.810;9.120;2022-10-16T16:46:04;21.50;81.20
210;DHT22;90;48.810;9.120;2022-10-16T16:48:32;21.60;80.50
210;DHT22;90;48.810;9.120;2022-10-16T16:51:03;21.60;79.60
210;DHT22;90;48.810;9.120;2022-10-16T16:53:32;21.60;79.00
210;DHT22;90;48.810;9.120;2022-10-16T16:56:01;21.60;78.50
210;DHT22;90;48.810;9.120;2022-10-16T16:58:28;21.70;78.20
210;DHT22;90;48.810;9.120;2022-10-16T17:00:56;21.70;78.30
210;DHT22;90;48.810;9.120;2022-10-16T17:03:26;21.60;78.10
210;DHT22;90;48.810;9.120;2022-10-16T17:05:57;21.60;78.20
210;DHT22;90;48.810;9.120;2022-10-16T17:08:25;21.60;77.90
210;DHT22;90;48.810;9.120;2022-10-16T17:10:54;21.60;78.00
210;DHT22;90;48.810;9.120;2022-10-16T17:13:22;21.50;78.00
210;DHT22;90;48.810;9.120;2022-10-16T17:15:51;21.50;78.20
210;DHT22;90;48.810;9.120;2022-10-16T17:18:19;21.50;78.10